sensor_id;sensor_type;location;lat;lon;timestamp;P1;durP1;ratioP1;P2;durP2;ratioP2
51525;SDS011;37611;51.794;21.590;2022-07-03T00:02:21;3.00;;;2.10;;
51525;SDS011;37611;51.794;21.590;2022-07-03T00:06:23;3.10;;;1.90;;
51525;SDS011;37611;51.794;21.590;2022-07-03T00:10:26;3.90;;;2.10;;
51525;SDS011;37611;51.794;21.590;2022-07-03T00:14:28;4.20;;;2.30;;
51525;SDS011;37611;51.794;21.590;2022-07-03T00:18:30;3.00;;;2.30;;
51525;SDS011;37611;51.794;21.590;2022-07-03T00:22:32;4.50;;;2.40;;
51525;SDS011;37611;51.794;21.590;2022-07-03T00:26:38;4.20;;;2.30;;
51525;SDS011;37611;51.794;21.590;2022-07-03T00:30:42;4.70;;;2.30;;
51525;SDS011;37611;51.794;21.590;2022-07-03T00:34:47;3.30;;;2.30;;
51525;SDS011;37611;51.794;21.590;2022-07-03T00:38:52;2.90;;;2.40;;
51525;SDS011;37611;51.794;21.590;2022-07-03T00:42:54;4.10;;;2.40;;
51525;SDS011;37611;51.794;21.590;2022-07-03T00:46:59;5.90;;;2.60;;
51525;SDS011;37611;51.794;21.590;2022-07-03T00:51:06;3.90;;;2.70;;
51525;SDS011;37611;51.794;21.590;2022-07-03T00:55:10;4.30;;;2.90;;
51525;SDS011;37611;51.794;21.590;2022-07-03T00:59:18;7.50;;;2.50;;
51525;SDS011;37611;51.794;21.590;2022-07-03T01:03:21;8.10;;;3.20;;
51525;SDS011;37611;51.794;21.590;2022-07-03T01:07:32;3.50;;;2.60;;
51525;SDS011;37611;51.794;21.590;2022-07-03T01:11:55;4.40;;;2.40;;
51525;SDS011;37611;51.794;21.590;2022-07-03T01:20:14;4.60;;;3.10;;
51525;SDS011;37611;51.794;21.590;2022-07-03T01:24:35;4.50;;;2.90;;
51525;SDS011;37611;51.794;21.590;2022-07-03T01:28:45;5.10;;;2.40;;
51525;SDS011;37611;51.794;21.590;2022-07-03T01:32:50;3.70;;;2.90;;
51525;SDS011;37611;51.794;21.590;2022-07-03T01:37:04;4.60;;;2.70;;
51525;SDS011;37611;51.794;21.590;2022-07-03T01:41:08;4.80;;;3.00;;
51525;SDS011;37611;51.794;21.590;2022-07-03T01:45:13;4.80;;;2.70;;
51525;SDS011;37611;51.794;21.590;2022-07-03T01:49:16;5.50;;;2.90;;
51525;SDS011;37611;51.794;21.590;2022-07-03T01:53:20;4.50;;;3.10;;
51525;SDS011;37611;51.794;21.590;2022-07-03T01:57:24;4.50;;;3.00;;
51525;SDS011;37611;51.794;21.590;2022-07-03T02:01:52;4.40;;;2.70;;
51525;SDS011;37611;51.794;21.590;2022-07-03T02:06:04;6.30;;;3.00;;
51525;SDS011;37611;51.794;21.590;2022-07-03T02:10:09;4.90;;;2.70;;
51525;SDS011;37611;51.794;21.590;2022-07-03T02:18:34;3.50;;;2.80;;
51525;SDS011;37611;51.794;21.590;2022-07-03T02:22:38;6.10;;;3.20;;
51525;SDS011;37611;51.794;21.590;2022-07-03T02:26:45;4.80;;;2.70;;
51525;SDS011;37611;51.794;21.590;2022-07-03T02:30:55;6.30;;;3.30;;
51525;SDS011;37611;51.794;21.590;2022-07-03T02:35:04;2.70;;;2.40;;
51525;SDS011;37611;51.794;21.590;2022-07-03T02:39:08;5.20;;;2.90;;
51525;SDS011;37611;51.794;21.590;2022-07-03T02:47:57;4.70;;;3.00;;
51525;SDS011;37611;51.794;21.590;2022-07-03T02:56:55;4.60;;;3.40;;
51525;SDS011;37611;51.794;21.590;2022-07-03T03:05:16;3.80;;;3.10;;
51525;SDS011;37611;51.794;21.590;2022-07-03T03:09:44;7.50;;;3.10;;
51525;SDS011;37611;51.794;21.590;2022-07-03T03:13:49;5.40;;;2.80;;
51525;SDS011;37611;51.794;21.590;2022-07-03T03:17:51;5.70;;;3.10;;
51525;SDS011;37611;51.794;21.590;2022-07-03T03:21:58;3.90;;;3.50;;
51525;SDS011;37611;51.794;21.590;2022-07-03T03:26:27;4.50;;;3.30;;
51525;SDS011;37611;51.794;21.590;2022-07-03T03:30:31;4.90;;;3.20;;
51525;SDS011;37611;51.794;21.590;2022-07-03T03:34:33;6.30;;;3.30;;
51525;SDS011;37611;51.794;21.590;2022-07-03T03:38:36;5.20;;;3.30;;
51525;SDS011;37611;51.794;21.590;2022-07-03T03:42:39;3.80;;;2.80;;
51525;SDS011;37611;51.794;21.590;2022-07-03T03:46:40;5.20;;;2.90;;
51525;SDS011;37611;51.794;21.590;2022-07-03T03:50:42;3.80;;;2.70;;
51525;SDS011;37611;51.794;21.590;2022-07-03T03:54:45;5.30;;;3.40;;
51525;SDS011;37611;51.794;21.590;2022-07-03T03:58:46;4.40;;;2.80;;
51525;SDS011;37611;51.794;21.590;2022-07-03T04:02:48;4.70;;;2.60;;
51525;SDS011;37611;51.794;21.590;2022-07-03T04:06:50;3.60;;;2.50;;
51525;SDS011;37611;51.794;21.590;2022-07-03T04:10:52;3.70;;;2.40;;
51525;SDS011;37611;51.794;21.590;2022-07-03T04:14:56;4.90;;;3.30;;
51525;SDS011;37611;51.794;21.590;2022-07-03T04:18:59;5.20;;;2.60;;
51525;SDS011;37611;51.794;21.590;2022-07-03T04:23:01;6.80;;;2.50;;
51525;SDS011;37611;51.794;21.590;2022-07-03T04:27:03;4.40;;;2.40;;
51525;SDS011;37611;51.794;21.590;2022-07-03T04:31:05;4.20;;;2.30;;
51525;SDS011;37611;51.794;21.590;2022-07-03T04:35:07;3.20;;;1.90;;
51525;SDS011;37611;51.794;21.590;2022-07-03T04:39:09;4.10;;;1.80;;
51525;SDS011;37611;51.794;21.590;2022-07-03T04:43:11;3.30;;;1.90;;
51525;SDS011;37611;51.794;21.590;2022-07-03T04:47:12;4.80;;;1.90;;
51525;SDS011;37611;51.794;21.590;2022-07-03T04:51:16;3.30;;;1.80;;
51525;SDS011;37611;51.794;21.590;2022-07-03T04:55:17;5.60;;;1.80;;
51525;SDS011;37611;51.794;21.590;2022-07-03T04:59:19;4.90;;;1.70;;
51525;SDS011;37611;51.794;21.590;2022-07-03T05:03:21;2.80;;;1.50;;
51525;SDS011;37611;51.794;21.590;2022-07-03T05:07:23;3.60;;;1.20;;
51525;SDS011;37611;51.794;21.590;2022-07-03T05:11:25;4.90;;;1.80;;
51525;SDS011;37611;51.794;21.590;2022-07-03T05:15:27;4.10;;;1.20;;
51525;SDS011;37611;51.794;21.590;2022-07-03T05:19:28;4.50;;;1.40;;
51525;SDS011;37611;51.794;21.590;2022-07-03T05:23:30;2.70;;;1.20;;
51525;SDS011;37611;51.794;21.590;2022-07-03T05:27:35;1.90;;;1.10;;
51525;SDS011;37611;51.794;21.590;2022-07-03T05:31:37;3.10;;;1.50;;
51525;SDS011;37611;51.794;21.590;2022-07-03T05:35:39;6.10;;;1.50;;
51525;SDS011;37611;51.794;21.590;2022-07-03T05:39:41;4.60;;;1.40;;
51525;SDS011;37611;51.794;21.590;2022-07-03T05:43:43;3.80;;;1.10;;
51525;SDS011;37611;51.794;21.590;2022-07-03T05:47:45;4.40;;;1.20;;
51525;SDS011;37611;51.794;21.590;2022-07-03T05:51:47;3.10;;;1.40;;
51525;SDS011;37611;51.794;21.590;2022-07-03T05:55:49;3.80;;;1.20;;
51525;SDS011;37611;51.794;21.590;2022-07-03T05:59:51;2.60;;;1.10;;
51525;SDS011;37611;51.794;21.590;2022-07-03T06:03:52;4.00;;;1.70;;
51525;SDS011;37611;51.794;21.590;2022-07-03T06:07:54;3.90;;;1.00;;
51525;SDS011;37611;51.794;21.590;2022-07-03T06:11:56;2.80;;;1.10;;
51525;SDS011;37611;51.794;21.590;2022-07-03T06:15:58;2.40;;;0.90;;
51525;SDS011;37611;51.794;21.590;2022-07-03T06:19:59;4.60;;;1.30;;
51525;SDS011;37611;51.794;21.590;2022-07-03T06:24:01;4.50;;;1.30;;
51525;SDS011;37611;51.794;21.590;2022-07-03T06:28:03;4.00;;;1.10;;
51525;SDS011;37611;51.794;21.590;2022-07-03T06:32:06;3.70;;;1.30;;
51525;SDS011;37611;51.794;21.590;2022-07-03T06:36:08;2.20;;;1.00;;
51525;SDS011;37611;51.794;21.590;2022-07-03T06:40:10;3.80;;;1.30;;
51525;SDS011;37611;51.794;21.590;2022-07-03T06:44:12;2.80;;;1.20;;
51525;SDS011;37611;51.794;21.590;2022-07-03T06:48:14;3.10;;;1.20;;
51525;SDS011;37611;51.794;21.590;2022-07-03T06:52:16;3.70;;;1.10;;
51525;SDS011;37611;51.794;21.590;2022-07-03T06:56:17;2.60;;;1.00;;
51525;SDS011;37611;51.794;21.590;2022-07-03T07:00:19;4.90;;;1.00;;
51525;SDS011;37611;51.794;21.590;2022-07-03T07:04:21;3.70;;;1.20;;
51525;SDS011;37611;51.794;21.590;2022-07-03T07:08:23;3.40;;;1.10;;
51525;SDS011;37611;51.794;21.590;2022-07-03T07:12:25;3.20;;;1.30;;
51525;SDS011;37611;51.794;21.590;2022-07-03T07:16:27;3.70;;;1.40;;
51525;SDS011;37611;51.794;21.590;2022-07-03T07:20:30;4.10;;;1.10;;
51525;SDS011;37611;51.794;21.590;2022-07-03T07:24:32;4.00;;;1.50;;
51525;SDS011;37611;51.794;21.590;2022-07-03T07:28:34;2.10;;;1.00;;
51525;SDS011;37611;51.794;21.590;2022-07-03T07:32:36;1.90;;;0.90;;
51525;SDS011;37611;51.794;21.590;2022-07-03T07:36:38;3.90;;;1.40;;
51525;SDS011;37611;51.794;21.590;2022-07-03T07:40:40;3.00;;;1.30;;
51525;SDS011;37611;51.794;21.590;2022-07-03T07:44:42;3.00;;;1.20;;
51525;SDS011;37611;51.794;21.590;2022-07-03T07:48:44;4.10;;;1.10;;
51525;SDS011;37611;51.794;21.590;2022-07-03T07:52:46;3.60;;;1.30;;
51525;SDS011;37611;51.794;21.590;2022-07-03T07:56:48;2.90;;;1.00;;
51525;SDS011;37611;51.794;21.590;2022-07-03T08:00:50;4.60;;;1.40;;
51525;SDS011;37611;51.794;21.590;2022-07-03T08:05:10;3.40;;;1.30;;
51525;SDS011;37611;51.794;21.590;2022-07-03T08:09:30;5.20;;;1.20;;
51525;SDS011;37611;51.794;21.590;2022-07-03T08:13:32;4.40;;;1.10;;
51525;SDS011;37611;51.794;21.590;2022-07-03T08:17:34;2.80;;;1.80;;
51525;SDS011;37611;51.794;21.590;2022-07-03T08:21:35;3.50;;;1.30;;
51525;SDS011;37611;51.794;21.590;2022-07-03T08:25:37;4.40;;;1.60;;
51525;SDS011;37611;51.794;21.590;2022-07-03T08:29:39;2.30;;;1.50;;
51525;SDS011;37611;51.794;21.590;2022-07-03T08:33:41;4.00;;;1.30;;
51525;SDS011;37611;51.794;21.590;2022-07-03T08:37:43;2.70;;;1.10;;
51525;SDS011;37611;51.794;21.590;2022-07-03T08:41:47;3.00;;;1.00;;
51525;SDS011;37611;51.794;21.590;2022-07-03T08:45:51;3.00;;;1.40;;
51525;SDS011;37611;51.794;21.590;2022-07-03T08:49:55;3.20;;;1.10;;
51525;SDS011;37611;51.794;21.590;2022-07-03T08:53:59;3.70;;;1.50;;
51525;SDS011;37611;51.794;21.590;2022-07-03T08:58:02;2.50;;;1.20;;
51525;SDS011;37611;51.794;21.590;2022-07-03T09:02:07;3.20;;;1.50;;
51525;SDS011;37611;51.794;21.590;2022-07-03T09:06:09;5.10;;;1.50;;
51525;SDS011;37611;51.794;21.590;2022-07-03T09:10:11;3.90;;;1.70;;
51525;SDS011;37611;51.794;21.590;2022-07-03T09:14:14;1.90;;;0.80;;
51525;SDS011;37611;51.794;21.590;2022-07-03T09:18:16;2.10;;;1.10;;
51525;SDS011;37611;51.794;21.590;2022-07-03T09:22:31;2.40;;;0.70;;
51525;SDS011;37611;51.794;21.590;2022-07-03T09:26:36;3.00;;;1.10;;
51525;SDS011;37611;51.794;21.590;2022-07-03T09:31:01;2.10;;;1.00;;
51525;SDS011;37611;51.794;21.590;2022-07-03T09:35:12;3.60;;;1.20;;
51525;SDS011;37611;51.794;21.590;2022-07-03T09:39:25;2.40;;;1.10;;
51525;SDS011;37611;51.794;21.590;2022-07-03T09:43:31;3.90;;;1.20;;
51525;SDS011;37611;51.794;21.590;2022-07-03T09:47:34;3.60;;;1.10;;
51525;SDS011;37611;51.794;21.590;2022-07-03T09:51:36;1.50;;;1.00;;
51525;SDS011;37611;51.794;21.590;2022-07-03T09:55:37;4.30;;;1.10;;
51525;SDS011;37611;51.794;21.590;2022-07-03T09:59:39;4.70;;;1.90;;
51525;SDS011;37611;51.794;21.590;2022-07-03T10:03:41;2.40;;;1.00;;
51525;SDS011;37611;51.794;21.590;2022-07-03T10:07:53;1.40;;;0.80;;
51525;SDS011;37611;51.794;21.590;2022-07-03T10:11:56;1.70;;;0.90;;
51525;SDS011;37611;51.794;21.590;2022-07-03T10:15:59;2.00;;;1.00;;
51525;SDS011;37611;51.794;21.590;2022-07-03T10:20:03;2.80;;;1.20;;
51525;SDS011;37611;51.794;21.590;2022-07-03T10:24:05;2.40;;;1.20;;
51525;SDS011;37611;51.794;21.590;2022-07-03T10:28:07;2.30;;;1.40;;
51525;SDS011;37611;51.794;21.590;2022-07-03T10:32:12;4.00;;;1.70;;
51525;SDS011;37611;51.794;21.590;2022-07-03T10:36:15;3.60;;;1.80;;
51525;SDS011;37611;51.794;21.590;2022-07-03T10:40:23;3.80;;;1.60;;
51525;SDS011;37611;51.794;21.590;2022-07-03T10:45:08;2.60;;;0.90;;
51525;SDS011;37611;51.794;21.590;2022-07-03T10:49:11;2.50;;;1.20;;
51525;SDS011;37611;51.794;21.590;2022-07-03T10:53:23;3.20;;;1.10;;
51525;SDS011;37611;51.794;21.590;2022-07-03T10:57:25;2.10;;;1.20;;
51525;SDS011;37611;51.794;21.590;2022-07-03T11:01:28;2.10;;;1.40;;
51525;SDS011;37611;51.794;21.590;2022-07-03T11:05:37;2.50;;;1.30;;
51525;SDS011;37611;51.794;21.590;2022-07-03T11:09:39;2.10;;;1.10;;
51525;SDS011;37611;51.794;21.590;2022-07-03T11:14:10;2.60;;;0.90;;
51525;SDS011;37611;51.794;21.590;2022-07-03T11:22:28;3.10;;;1.60;;
51525;SDS011;37611;51.794;21.590;2022-07-03T11:26:38;3.40;;;1.30;;
51525;SDS011;37611;51.794;21.590;2022-07-03T11:39:46;1.90;;;1.40;;
51525;SDS011;37611;51.794;21.590;2022-07-03T11:43:53;1.90;;;1.20;;
51525;SDS011;37611;51.794;21.590;2022-07-03T11:47:56;2.40;;;1.40;;
51525;SDS011;37611;51.794;21.590;2022-07-03T11:51:59;2.60;;;1.30;;
51525;SDS011;37611;51.794;21.590;2022-07-03T11:56:03;3.10;;;1.40;;
51525;SDS011;37611;51.794;21.590;2022-07-03T12:00:09;2.30;;;1.20;;
51525;SDS011;37611;51.794;21.590;2022-07-03T12:04:18;3.60;;;1.30;;
51525;SDS011;37611;51.794;21.590;2022-07-03T12:12:26;2.60;;;1.50;;
51525;SDS011;37611;51.794;21.590;2022-07-03T12:16:32;3.90;;;1.50;;
51525;SDS011;37611;51.794;21.590;2022-07-03T12:20:35;2.50;;;1.30;;
51525;SDS011;37611;51.794;21.590;2022-07-03T12:24:37;2.40;;;1.40;;
51525;SDS011;37611;51.794;21.590;2022-07-03T12:28:40;3.00;;;1.40;;
51525;SDS011;37611;51.794;21.590;2022-07-03T12:32:42;2.60;;;1.50;;
51525;SDS011;37611;51.794;21.590;2022-07-03T12:36:56;1.80;;;1.40;;
51525;SDS011;37611;51.794;21.590;2022-07-03T12:41:03;4.30;;;1.40;;
51525;SDS011;37611;51.794;21.590;2022-07-03T12:45:06;2.90;;;1.60;;
51525;SDS011;37611;51.794;21.590;2022-07-03T12:49:12;1.40;;;1.30;;
51525;SDS011;37611;51.794;21.590;2022-07-03T12:53:35;3.10;;;1.60;;
51525;SDS011;37611;51.794;21.590;2022-07-03T12:57:36;2.80;;;1.70;;
51525;SDS011;37611;51.794;21.590;2022-07-03T13:02:01;3.40;;;1.80;;
51525;SDS011;37611;51.794;21.590;2022-07-03T13:06:12;2.90;;;1.60;;
51525;SDS011;37611;51.794;21.590;2022-07-03T13:10:27;3.10;;;2.00;;
51525;SDS011;37611;51.794;21.590;2022-07-03T13:14:30;2.40;;;1.60;;
51525;SDS011;37611;51.794;21.590;2022-07-03T13:18:31;2.80;;;1.90;;
51525;SDS011;37611;51.794;21.590;2022-07-03T13:22:33;3.20;;;1.70;;
51525;SDS011;37611;51.794;21.590;2022-07-03T13:26:35;3.20;;;1.70;;
51525;SDS011;37611;51.794;21.590;2022-07-03T13:30:37;2.40;;;1.70;;
51525;SDS011;37611;51.794;21.590;2022-07-03T13:34:40;3.20;;;2.00;;
51525;SDS011;37611;51.794;21.590;2022-07-03T13:38:42;4.50;;;1.90;;
51525;SDS011;37611;51.794;21.590;2022-07-03T13:42:45;3.90;;;2.20;;
51525;SDS011;37611;51.794;21.590;2022-07-03T13:46:47;4.30;;;2.00;;
51525;SDS011;37611;51.794;21.590;2022-07-03T13:50:48;3.30;;;2.30;;
51525;SDS011;37611;51.794;21.590;2022-07-03T13:54:50;3.40;;;2.10;;
51525;SDS011;37611;51.794;21.590;2022-07-03T13:58:52;4.30;;;2.10;;
51525;SDS011;37611;51.794;21.590;2022-07-03T14:02:53;4.20;;;2.80;;
51525;SDS011;37611;51.794;21.590;2022-07-03T14:06:56;3.40;;;2.20;;
51525;SDS011;37611;51.794;21.590;2022-07-03T14:10:58;3.20;;;1.80;;
51525;SDS011;37611;51.794;21.590;2022-07-03T14:15:00;2.40;;;1.80;;
51525;SDS011;37611;51.794;21.590;2022-07-03T14:19:03;3.80;;;2.30;;
51525;SDS011;37611;51.794;21.590;2022-07-03T14:23:07;3.00;;;2.40;;
51525;SDS011;37611;51.794;21.590;2022-07-03T14:27:08;3.90;;;2.20;;
51525;SDS011;37611;51.794;21.590;2022-07-03T14:31:29;3.70;;;2.40;;
51525;SDS011;37611;51.794;21.590;2022-07-03T14:35:49;4.50;;;2.30;;
51525;SDS011;37611;51.794;21.590;2022-07-03T14:39:52;4.60;;;2.50;;
51525;SDS011;37611;51.794;21.590;2022-07-03T14:43:54;3.50;;;1.80;;
51525;SDS011;37611;51.794;21.590;2022-07-03T14:47:56;3.10;;;2.10;;
51525;SDS011;37611;51.794;21.590;2022-07-03T14:52:03;2.00;;;1.80;;
51525;SDS011;37611;51.794;21.590;2022-07-03T14:56:07;5.40;;;2.30;;
51525;SDS011;37611;51.794;21.590;2022-07-03T15:00:16;6.40;;;2.00;;
51525;SDS011;37611;51.794;21.590;2022-07-03T15:04:25;3.50;;;2.00;;
51525;SDS011;37611;51.794;21.590;2022-07-03T15:12:40;4.40;;;2.40;;
51525;SDS011;37611;51.794;21.590;2022-07-03T15:16:43;4.30;;;2.40;;
51525;SDS011;37611;51.794;21.590;2022-07-03T15:20:47;4.90;;;2.00;;
51525;SDS011;37611;51.794;21.590;2022-07-03T15:24:52;3.90;;;2.20;;
51525;SDS011;37611;51.794;21.590;2022-07-03T15:28:55;3.60;;;2.70;;
51525;SDS011;37611;51.794;21.590;2022-07-03T15:32:59;4.30;;;2.50;;
51525;SDS011;37611;51.794;21.590;2022-07-03T15:41:09;2.60;;;2.30;;
51525;SDS011;37611;51.794;21.590;2022-07-03T15:49:36;4.90;;;2.40;;
51525;SDS011;37611;51.794;21.590;2022-07-03T15:53:44;4.80;;;2.70;;
51525;SDS011;37611;51.794;21.590;2022-07-03T15:58:03;4.40;;;2.40;;
51525;SDS011;37611;51.794;21.590;2022-07-03T16:02:06;3.30;;;2.80;;
51525;SDS011;37611;51.794;21.590;2022-07-03T16:06:18;3.40;;;2.50;;
51525;SDS011;37611;51.794;21.590;2022-07-03T16:10:21;4.00;;;2.60;;
51525;SDS011;37611;51.794;21.590;2022-07-03T16:14:23;2.90;;;2.50;;
51525;SDS011;37611;51.794;21.590;2022-07-03T16:18:34;3.50;;;2.50;;
51525;SDS011;37611;51.794;21.590;2022-07-03T16:22:37;3.50;;;2.30;;
51525;SDS011;37611;51.794;21.590;2022-07-03T16:26:39;3.00;;;2.70;;
51525;SDS011;37611;51.794;21.590;2022-07-03T16:30:45;2.80;;;2.60;;
51525;SDS011;37611;51.794;21.590;2022-07-03T16:39:07;5.20;;;2.70;;
51525;SDS011;37611;51.794;21.590;2022-07-03T16:43:09;3.10;;;2.50;;
51525;SDS011;37611;51.794;21.590;2022-07-03T16:47:15;3.00;;;2.70;;
51525;SDS011;37611;51.794;21.590;2022-07-03T16:51:18;4.60;;;3.00;;
51525;SDS011;37611;51.794;21.590;2022-07-03T16:55:23;3.00;;;2.80;;
51525;SDS011;37611;51.794;21.590;2022-07-03T16:59:25;3.70;;;2.80;;
51525;SDS011;37611;51.794;21.590;2022-07-03T17:03:27;3.50;;;3.00;;
51525;SDS011;37611;51.794;21.590;2022-07-03T17:07:30;3.40;;;3.10;;
51525;SDS011;37611;51.794;21.590;2022-07-03T17:11:33;3.60;;;2.30;;
51525;SDS011;37611;51.794;21.590;2022-07-03T17:15:35;4.40;;;2.60;;
51525;SDS011;37611;51.794;21.590;2022-07-03T17:19:41;4.20;;;2.70;;
51525;SDS011;37611;51.794;21.590;2022-07-03T17:23:50;4.60;;;2.90;;
51525;SDS011;37611;51.794;21.590;2022-07-03T17:27:56;7.70;;;3.10;;
51525;SDS011;37611;51.794;21.590;2022-07-03T17:32:00;4.40;;;3.40;;
51525;SDS011;37611;51.794;21.590;2022-07-03T17:36:07;3.30;;;3.00;;
51525;SDS011;37611;51.794;21.590;2022-07-03T17:40:14;4.90;;;2.90;;
51525;SDS011;37611;51.794;21.590;2022-07-03T17:44:18;13.70;;;7.60;;
51525;SDS011;37611;51.794;21.590;2022-07-03T17:48:20;4.80;;;4.10;;
51525;SDS011;37611;51.794;21.590;2022-07-03T17:52:23;13.50;;;10.00;;
51525;SDS011;37611;51.794;21.590;2022-07-03T17:56:27;19.40;;;11.30;;
51525;SDS011;37611;51.794;21.590;2022-07-03T18:00:30;10.30;;;6.10;;
51525;SDS011;37611;51.794;21.590;2022-07-03T18:04:32;10.00;;;8.10;;
51525;SDS011;37611;51.794;21.590;2022-07-03T18:08:57;12.50;;;9.00;;
51525;SDS011;37611;51.794;21.590;2022-07-03T18:13:02;11.10;;;8.50;;
51525;SDS011;37611;51.794;21.590;2022-07-03T18:17:06;11.30;;;8.40;;
51525;SDS011;37611;51.794;21.590;2022-07-03T18:21:11;9.30;;;6.60;;
51525;SDS011;37611;51.794;21.590;2022-07-03T18:25:15;8.00;;;6.40;;
51525;SDS011;37611;51.794;21.590;2022-07-03T18:29:19;26.40;;;17.60;;
51525;SDS011;37611;51.794;21.590;2022-07-03T18:33:21;27.80;;;20.50;;
51525;SDS011;37611;51.794;21.590;2022-07-03T18:37:27;20.40;;;16.50;;
51525;SDS011;37611;51.794;21.590;2022-07-03T18:41:35;17.00;;;13.40;;
51525;SDS011;37611;51.794;21.590;2022-07-03T18:45:53;12.90;;;6.90;;
51525;SDS011;37611;51.794;21.590;2022-07-03T18:50:07;10.10;;;7.50;;
51525;SDS011;37611;51.794;21.590;2022-07-03T18:54:26;7.70;;;6.60;;
51525;SDS011;37611;51.794;21.590;2022-07-03T19:03:13;10.30;;;7.00;;
51525;SDS011;37611;51.794;21.590;2022-07-03T19:11:54;9.90;;;7.50;;
51525;SDS011;37611;51.794;21.590;2022-07-03T19:16:04;13.20;;;10.70;;
51525;SDS011;37611;51.794;21.590;2022-07-03T19:20:08;12.00;;;9.20;;
51525;SDS011;37611;51.794;21.590;2022-07-03T19:24:12;15.20;;;10.30;;
51525;SDS011;37611;51.794;21.590;2022-07-03T19:28:14;29.70;;;22.30;;
51525;SDS011;37611;51.794;21.590;2022-07-03T19:32:16;20.20;;;13.00;;
51525;SDS011;37611;51.794;21.590;2022-07-03T19:36:18;12.90;;;8.80;;
51525;SDS011;37611;51.794;21.590;2022-07-03T19:40:22;10.80;;;8.40;;
51525;SDS011;37611;51.794;21.590;2022-07-03T19:44:24;13.40;;;10.90;;
51525;SDS011;37611;51.794;21.590;2022-07-03T19:48:26;12.30;;;9.10;;
51525;SDS011;37611;51.794;21.590;2022-07-03T19:52:28;12.50;;;10.80;;
51525;SDS011;37611;51.794;21.590;2022-07-03T19:56:30;15.30;;;11.00;;
51525;SDS011;37611;51.794;21.590;2022-07-03T20:00:32;19.90;;;11.90;;
51525;SDS011;37611;51.794;21.590;2022-07-03T20:04:34;17.50;;;11.60;;
51525;SDS011;37611;51.794;21.590;2022-07-03T20:08:35;16.50;;;13.00;;
51525;SDS011;37611;51.794;21.590;2022-07-03T20:12:37;19.10;;;12.60;;
51525;SDS011;37611;51.794;21.590;2022-07-03T20:16:39;16.00;;;10.50;;
51525;SDS011;37611;51.794;21.590;2022-07-03T20:20:41;10.30;;;8.30;;
51525;SDS011;37611;51.794;21.590;2022-07-03T20:24:44;16.10;;;12.60;;
51525;SDS011;37611;51.794;21.590;2022-07-03T20:28:47;13.50;;;10.30;;
51525;SDS011;37611;51.794;21.590;2022-07-03T20:32:49;15.80;;;12.90;;
51525;SDS011;37611;51.794;21.590;2022-07-03T20:36:51;14.60;;;11.70;;
51525;SDS011;37611;51.794;21.590;2022-07-03T20:40:54;46.90;;;38.10;;
51525;SDS011;37611;51.794;21.590;2022-07-03T20:44:56;20.50;;;16.40;;
51525;SDS011;37611;51.794;21.590;2022-07-03T20:48:57;21.40;;;17.90;;
51525;SDS011;37611;51.794;21.590;2022-07-03T20:53:02;25.80;;;21.40;;
51525;SDS011;37611;51.794;21.590;2022-07-03T20:57:05;28.80;;;20.70;;
51525;SDS011;37611;51.794;21.590;2022-07-03T21:01:08;19.80;;;13.90;;
51525;SDS011;37611;51.794;21.590;2022-07-03T21:05:10;19.40;;;11.80;;
51525;SDS011;37611;51.794;21.590;2022-07-03T21:09:12;17.80;;;13.10;;
51525;SDS011;37611;51.794;21.590;2022-07-03T21:13:14;15.10;;;10.10;;
51525;SDS011;37611;51.794;21.590;2022-07-03T21:17:15;16.10;;;10.00;;
51525;SDS011;37611;51.794;21.590;2022-07-03T21:21:17;14.20;;;9.70;;
51525;SDS011;37611;51.794;21.590;2022-07-03T21:25:19;18.60;;;12.40;;
51525;SDS011;37611;51.794;21.590;2022-07-03T21:29:21;19.40;;;14.90;;
51525;SDS011;37611;51.794;21.590;2022-07-03T21:33:26;22.10;;;15.10;;
51525;SDS011;37611;51.794;21.590;2022-07-03T21:37:28;20.10;;;14.80;;
51525;SDS011;37611;51.794;21.590;2022-07-03T21:41:30;27.80;;;18.50;;
51525;SDS011;37611;51.794;21.590;2022-07-03T21:45:32;22.00;;;14.20;;
51525;SDS011;37611;51.794;21.590;2022-07-03T21:49:34;20.70;;;14.00;;
51525;SDS011;37611;51.794;21.590;2022-07-03T21:53:36;24.00;;;14.60;;
51525;SDS011;37611;51.794;21.590;2022-07-03T21:57:38;16.20;;;12.10;;
51525;SDS011;37611;51.794;21.590;2022-07-03T22:01:40;20.00;;;12.60;;
51525;SDS011;37611;51.794;21.590;2022-07-03T22:05:42;18.50;;;13.50;;
51525;SDS011;37611;51.794;21.590;2022-07-03T22:09:44;20.60;;;12.30;;
51525;SDS011;37611;51.794;21.590;2022-07-03T22:13:46;19.90;;;11.70;;
51525;SDS011;37611;51.794;21.590;2022-07-03T22:17:49;13.90;;;11.20;;
51525;SDS011;37611;51.794;21.590;2022-07-03T22:21:51;14.70;;;10.50;;
51525;SDS011;37611;51.794;21.590;2022-07-03T22:25:53;11.50;;;9.30;;
51525;SDS011;37611;51.794;21.590;2022-07-03T22:29:55;15.00;;;12.60;;
51525;SDS011;37611;51.794;21.590;2022-07-03T22:33:58;14.70;;;10.30;;
51525;SDS011;37611;51.794;21.590;2022-07-03T22:38:00;14.40;;;11.70;;
51525;SDS011;37611;51.794;21.590;2022-07-03T22:42:02;14.20;;;11.20;;
51525;SDS011;37611;51.794;21.590;2022-07-03T22:46:05;15.90;;;10.70;;
51525;SDS011;37611;51.794;21.590;2022-07-03T22:50:07;11.00;;;9.80;;
51525;SDS011;37611;51.794;21.590;2022-07-03T22:54:10;13.30;;;10.00;;
51525;SDS011;37611;51.794;21.590;2022-07-03T22:58:13;13.80;;;10.60;;
51525;SDS011;37611;51.794;21.590;2022-07-03T23:02:15;14.40;;;10.60;;
51525;SDS011;37611;51.794;21.590;2022-07-03T23:06:17;11.60;;;9.20;;
51525;SDS011;37611;51.794;21.590;2022-07-03T23:10:19;11.10;;;9.60;;
51525;SDS011;37611;51.794;21.590;2022-07-03T23:14:21;18.40;;;11.50;;
51525;SDS011;37611;51.794;21.590;2022-07-03T23:18:23;15.40;;;11.70;;
51525;SDS011;37611;51.794;21.590;2022-07-03T23:22:24;15.80;;;11.40;;
51525;SDS011;37611;51.794;21.590;2022-07-03T23:26:26;12.10;;;10.50;;
51525;SDS011;37611;51.794;21.590;2022-07-03T23:30:29;10.40;;;9.20;;
51525;SDS011;37611;51.794;21.590;2022-07-03T23:34:31;11.00;;;8.90;;
51525;SDS011;37611;51.794;21.590;2022-07-03T23:38:35;13.30;;;9.50;;
51525;SDS011;37611;51.794;21.590;2022-07-03T23:42:37;10.80;;;9.00;;
51525;SDS011;37611;51.794;21.590;2022-07-03T23:46:39;10.70;;;9.10;;
51525;SDS011;37611;51.794;21.590;2022-07-03T23:50:41;11.90;;;9.20;;
51525;SDS011;37611;51.794;21.590;2022-07-03T23:54:43;11.30;;;9.30;;
51525;SDS011;37611;51.794;21.590;2022-07-03T23:58:45;12.40;;;9.40;;
